sensor_id;sensor_type;location;lat;lon;timestamp;pressure;altitude;pressure_sealevel;temperature;humidity
62833;BME280;48891;49.220;6.920;2023-03-01T00:01:10;99874.91;;;13.27;50.00
62833;BME280;48891;49.220;6.920;2023-03-01T00:03:36;99861.03;;;13.22;49.97
62833;BME280;48891;49.220;6.920;2023-03-01T00:06:02;99870.44;;;13.27;49.79
62833;BME280;48891;49.220;6.920;2023-03-01T00:08:27;99881.91;;;13.28;50.00
62833;BME280;48891;49.220;6.920;2023-03-01T00:13:37;99876.78;;;13.25;49.89
62833;BME280;48891;49.220;6.920;2023-03-01T00:16:04;99882.84;;;13.27;49.93
62833;BME280;48891;49.220;6.920;2023-03-01T00:18:30;99889.06;;;13.26;49.76
62833;BME280;48891;49.220;6.920;2023-03-01T00:20:55;99881.13;;;13.26;49.99
62833;BME280;48891;49.220;6.920;2023-03-01T00:23:22;99882.91;;;13.25;49.85
62833;BME280;48891;49.220;6.920;2023-03-01T00:25:47;99882.00;;;13.26;49.76
62833;BME280;48891;49.220;6.920;2023-03-01T00:28:13;99878.47;;;13.26;49.81
62833;BME280;48891;49.220;6.920;2023-03-01T00:30:38;99881.22;;;13.24;49.98
62833;BME280;48891;49.220;6.920;2023-03-01T00:33:03;99869.13;;;13.19;49.81
62833;BME280;48891;49.220;6.920;2023-03-01T00:35:29;99879.41;;;13.25;49.88
62833;BME280;48891;49.220;6.920;2023-03-01T00:37:54;99851.13;;;13.08;49.79
62833;BME280;48891;49.220;6.920;2023-03-01T00:40:19;99869.75;;;13.24;49.73
62833;BME280;48891;49.220;6.920;2023-03-01T00:42:45;99872.41;;;13.24;49.79
62833;BME280;48891;49.220;6.920;2023-03-01T00:45:10;99874.19;;;13.23;49.56
62833;BME280;48891;49.220;6.920;2023-03-01T00:47:35;99873.28;;;13.24;49.68
62833;BME280;48891;49.220;6.920;2023-03-01T00:50:00;99862.81;;;13.21;49.68
62833;BME280;48891;49.220;6.920;2023-03-01T00:52:26;99857.59;;;13.20;49.61
62833;BME280;48891;49.220;6.920;2023-03-01T00:54:52;99855.72;;;13.22;49.76
62833;BME280;48891;49.220;6.920;2023-03-01T00:57:18;99854.97;;;13.20;49.63
62833;BME280;48891;49.220;6.920;2023-03-01T00:59:43;99865.47;;;13.21;49.54
62833;BME280;48891;49.220;6.920;2023-03-01T01:02:08;99859.22;;;13.22;49.56
62833;BME280;48891;49.220;6.920;2023-03-01T01:04:34;99858.38;;;13.22;49.43
62833;BME280;48891;49.220;6.920;2023-03-01T01:06:59;99850.44;;;13.22;49.42
62833;BME280;48891;49.220;6.920;2023-03-01T01:09:24;99843.66;;;13.16;49.57
62833;BME280;48891;49.220;6.920;2023-03-01T01:11:50;99853.94;;;13.22;49.56
62833;BME280;48891;49.220;6.920;2023-03-01T01:14:17;99858.38;;;13.22;49.47
62833;BME280;48891;49.220;6.920;2023-03-01T01:16:42;99846.06;;;13.21;49.35
62833;BME280;48891;49.220;6.920;2023-03-01T01:19:09;99848.63;;;13.22;49.51
62833;BME280;48891;49.220;6.920;2023-03-01T01:21:35;99847.88;;;13.20;49.47
62833;BME280;48891;49.220;6.920;2023-03-01T01:24:03;99791.47;;;12.83;49.52
62833;BME280;48891;49.220;6.920;2023-03-01T01:26:32;99845.38;;;13.17;49.64
62833;BME280;48891;49.220;6.920;2023-03-01T01:28:58;99843.53;;;13.19;49.40
62833;BME280;48891;49.220;6.920;2023-03-01T01:31:24;99848.13;;;13.16;49.37
62833;BME280;48891;49.220;6.920;2023-03-01T01:33:51;99847.03;;;13.20;49.46
62833;BME280;48891;49.220;6.920;2023-03-01T01:36:17;99844.44;;;13.18;49.42
62833;BME280;48891;49.220;6.920;2023-03-01T01:38:42;99844.44;;;13.18;49.33
62833;BME280;48891;49.220;6.920;2023-03-01T01:41:08;99798.97;;;12.93;49.37
62833;BME280;48891;49.220;6.920;2023-03-01T01:43:37;99839.16;;;13.18;49.51
62833;BME280;48891;49.220;6.920;2023-03-01T01:49:02;99842.72;;;13.17;49.39
62833;BME280;48891;49.220;6.920;2023-03-01T01:51:33;99835.66;;;13.18;49.44
62833;BME280;48891;49.220;6.920;2023-03-01T01:54:00;99834.78;;;13.17;49.29
62833;BME280;48891;49.220;6.920;2023-03-01T01:56:27;99831.34;;;13.15;49.40
62833;BME280;48891;49.220;6.920;2023-03-01T01:58:54;99840.06;;;13.17;49.29
62833;BME280;48891;49.220;6.920;2023-03-01T02:01:20;99830.44;;;13.16;49.31
62833;BME280;48891;49.220;6.920;2023-03-01T02:03:46;99827.84;;;13.15;49.38
62833;BME280;48891;49.220;6.920;2023-03-01T02:06:19;99825.13;;;13.16;49.24
62833;BME280;48891;49.220;6.920;2023-03-01T02:08:48;99808.41;;;13.16;49.50
62833;BME280;48891;49.220;6.920;2023-03-01T02:11:15;99815.41;;;13.17;49.38
62833;BME280;48891;49.220;6.920;2023-03-01T02:13:42;99782.78;;;12.99;49.54
62833;BME280;48891;49.220;6.920;2023-03-01T02:16:09;99807.72;;;13.12;49.19
62833;BME280;48891;49.220;6.920;2023-03-01T02:18:35;99804.94;;;13.14;49.21
62833;BME280;48891;49.220;6.920;2023-03-01T02:21:17;99802.16;;;13.17;49.41
62833;BME280;48891;49.220;6.920;2023-03-01T02:23:48;99798.72;;;13.15;49.20
62833;BME280;48891;49.220;6.920;2023-03-01T02:29:01;99785.50;;;13.15;49.19
62833;BME280;48891;49.220;6.920;2023-03-01T02:31:26;99783.00;;;13.11;49.15
62833;BME280;48891;49.220;6.920;2023-03-01T02:33:52;99788.16;;;13.15;49.00
62833;BME280;48891;49.220;6.920;2023-03-01T02:36:24;99779.34;;;13.14;49.18
62833;BME280;48891;49.220;6.920;2023-03-01T02:38:53;99779.34;;;13.14;49.25
62833;BME280;48891;49.220;6.920;2023-03-01T02:41:20;99767.03;;;13.13;49.38
62833;BME280;48891;49.220;6.920;2023-03-01T02:43:46;99720.91;;;12.84;49.21
62833;BME280;48891;49.220;6.920;2023-03-01T02:46:20;99771.41;;;13.14;49.20
62833;BME280;48891;49.220;6.920;2023-03-01T02:48:54;99760.06;;;13.12;49.05
62833;BME280;48891;49.220;6.920;2023-03-01T02:56:39;99756.59;;;13.10;49.13
62833;BME280;48891;49.220;6.920;2023-03-01T02:59:05;99748.66;;;13.10;49.05
62833;BME280;48891;49.220;6.920;2023-03-01T03:01:31;99754.06;;;13.08;49.11
62833;BME280;48891;49.220;6.920;2023-03-01T03:03:56;99755.69;;;13.11;48.84
62833;BME280;48891;49.220;6.920;2023-03-01T03:06:21;99758.31;;;13.11;49.03
62833;BME280;48891;49.220;6.920;2023-03-01T03:08:47;99757.47;;;13.10;49.24
62833;BME280;48891;49.220;6.920;2023-03-01T03:11:12;99748.66;;;13.10;49.25
62833;BME280;48891;49.220;6.920;2023-03-01T03:13:37;99749.53;;;13.10;49.06
62833;BME280;48891;49.220;6.920;2023-03-01T03:16:03;99736.53;;;13.06;49.05
62833;BME280;48891;49.220;6.920;2023-03-01T03:18:28;99739.94;;;13.08;49.08
62833;BME280;48891;49.220;6.920;2023-03-01T03:20:54;99731.00;;;13.10;48.92
62833;BME280;48891;49.220;6.920;2023-03-01T03:23:21;99731.09;;;13.09;49.05
62833;BME280;48891;49.220;6.920;2023-03-01T03:25:49;99724.41;;;13.02;49.03
62833;BME280;48891;49.220;6.920;2023-03-01T03:28:14;99740.81;;;13.08;48.90
62833;BME280;48891;49.220;6.920;2023-03-01T03:30:41;99746.00;;;13.10;48.90
62833;BME280;48891;49.220;6.920;2023-03-01T03:33:07;99734.66;;;13.08;49.04
62833;BME280;48891;49.220;6.920;2023-03-01T03:35:38;99708.19;;;12.90;48.93
62833;BME280;48891;49.220;6.920;2023-03-01T03:38:06;99747.03;;;13.07;48.96
62833;BME280;48891;49.220;6.920;2023-03-01T03:40:40;99732.09;;;13.06;48.99
62833;BME280;48891;49.220;6.920;2023-03-01T03:43:08;99735.59;;;13.07;49.03
62833;BME280;48891;49.220;6.920;2023-03-01T03:45:34;99668.56;;;12.73;49.11
62833;BME280;48891;49.220;6.920;2023-03-01T03:48:01;99726.78;;;13.06;48.93
62833;BME280;48891;49.220;6.920;2023-03-01T03:50:26;99728.59;;;13.06;49.03
62833;BME280;48891;49.220;6.920;2023-03-01T03:52:52;99721.50;;;13.06;48.91
62833;BME280;48891;49.220;6.920;2023-03-01T03:55:17;99714.50;;;13.05;48.92
62833;BME280;48891;49.220;6.920;2023-03-01T03:57:42;99722.53;;;13.04;49.07
62833;BME280;48891;49.220;6.920;2023-03-01T04:00:11;99700.81;;;12.97;48.87
62833;BME280;48891;49.220;6.920;2023-03-01T04:02:37;99709.28;;;13.04;48.86
62833;BME280;48891;49.220;6.920;2023-03-01T04:05:02;99704.84;;;13.04;49.03
62833;BME280;48891;49.220;6.920;2023-03-01T04:07:28;99704.84;;;13.04;49.11
62833;BME280;48891;49.220;6.920;2023-03-01T04:09:53;99703.03;;;13.05;48.86
62833;BME280;48891;49.220;6.920;2023-03-01T04:12:18;99696.13;;;13.02;48.89
62833;BME280;48891;49.220;6.920;2023-03-01T04:14:44;99704.00;;;13.04;48.85
62833;BME280;48891;49.220;6.920;2023-03-01T04:17:10;99685.47;;;13.04;48.88
62833;BME280;48891;49.220;6.920;2023-03-01T04:19:35;99694.34;;;13.03;48.95
62833;BME280;48891;49.220;6.920;2023-03-01T04:22:00;99695.09;;;13.05;48.80
62833;BME280;48891;49.220;6.920;2023-03-01T04:24:25;99683.75;;;13.03;48.83
62833;BME280;48891;49.220;6.920;2023-03-01T04:26:50;99681.09;;;13.03;48.90
62833;BME280;48891;49.220;6.920;2023-03-01T04:29:16;99679.41;;;13.02;48.92
62833;BME280;48891;49.220;6.920;2023-03-01T04:31:41;99679.41;;;13.02;48.96
62833;BME280;48891;49.220;6.920;2023-03-01T04:34:06;99682.13;;;13.00;48.93
62833;BME280;48891;49.220;6.920;2023-03-01T04:36:32;99684.69;;;13.02;48.89
62833;BME280;48891;49.220;6.920;2023-03-01T04:38:57;99694.41;;;13.01;48.97
62833;BME280;48891;49.220;6.920;2023-03-01T04:41:24;99678.63;;;13.00;49.07
62833;BME280;48891;49.220;6.920;2023-03-01T04:43:50;99677.69;;;13.01;48.98
62833;BME280;48891;49.220;6.920;2023-03-01T04:46:17;99687.34;;;13.02;49.02
62833;BME280;48891;49.220;6.920;2023-03-01T04:48:44;99692.63;;;13.02;49.13
62833;BME280;48891;49.220;6.920;2023-03-01T04:51:09;99678.44;;;13.03;49.20
62833;BME280;48891;49.220;6.920;2023-03-01T04:53:35;99675.03;;;13.01;49.33
62833;BME280;48891;49.220;6.920;2023-03-01T04:56:00;99675.03;;;13.01;48.95
62833;BME280;48891;49.220;6.920;2023-03-01T04:58:26;99676.00;;;13.00;49.29
62833;BME280;48891;49.220;6.920;2023-03-01T05:00:52;99677.69;;;13.01;49.31
62833;BME280;48891;49.220;6.920;2023-03-01T05:03:18;99687.41;;;13.00;49.14
62833;BME280;48891;49.220;6.920;2023-03-01T05:05:46;99679.47;;;13.00;49.29
62833;BME280;48891;49.220;6.920;2023-03-01T05:08:12;99682.28;;;12.97;49.36
62833;BME280;48891;49.220;6.920;2023-03-01T05:10:38;99678.63;;;13.00;49.45
62833;BME280;48891;49.220;6.920;2023-03-01T05:13:03;99678.63;;;13.00;49.30
62833;BME280;48891;49.220;6.920;2023-03-01T05:15:30;99689.22;;;13.00;49.23
62833;BME280;48891;49.220;6.920;2023-03-01T05:17:57;99682.28;;;12.97;49.38
62833;BME280;48891;49.220;6.920;2023-03-01T05:20:23;99687.50;;;12.99;49.26
62833;BME280;48891;49.220;6.920;2023-03-01T05:22:51;99631.81;;;12.67;49.40
62833;BME280;48891;49.220;6.920;2023-03-01T05:25:17;99691.00;;;12.99;49.04
62833;BME280;48891;49.220;6.920;2023-03-01T05:27:42;99674.34;;;12.97;49.14
62833;BME280;48891;49.220;6.920;2023-03-01T05:30:08;99685.78;;;12.98;49.31
62833;BME280;48891;49.220;6.920;2023-03-01T05:32:34;99684.00;;;12.98;49.34
62833;BME280;48891;49.220;6.920;2023-03-01T05:34:59;99694.50;;;13.00;49.17
62833;BME280;48891;49.220;6.920;2023-03-01T05:37:24;99680.47;;;12.98;49.35
62833;BME280;48891;49.220;6.920;2023-03-01T05:39:49;99685.78;;;12.98;49.27
62833;BME280;48891;49.220;6.920;2023-03-01T05:42:15;99681.50;;;12.95;49.26
62833;BME280;48891;49.220;6.920;2023-03-01T05:44:40;99676.38;;;12.92;49.30
62833;BME280;48891;49.220;6.920;2023-03-01T05:47:05;99680.59;;;12.96;49.51
62833;BME280;48891;49.220;6.920;2023-03-01T05:49:31;99666.66;;;12.93;49.45
62833;BME280;48891;49.220;6.920;2023-03-01T05:51:56;99662.44;;;12.88;49.29
62833;BME280;48891;49.220;6.920;2023-03-01T05:54:22;99666.56;;;12.94;49.16
62833;BME280;48891;49.220;6.920;2023-03-01T05:56:47;99670.94;;;12.95;49.41
62833;BME280;48891;49.220;6.920;2023-03-01T05:59:12;99679.72;;;12.96;49.49
62833;BME280;48891;49.220;6.920;2023-03-01T06:01:38;99676.22;;;12.95;49.42
62833;BME280;48891;49.220;6.920;2023-03-01T06:04:03;99671.78;;;12.96;49.44
62833;BME280;48891;49.220;6.920;2023-03-01T06:06:29;99669.13;;;12.96;49.69
62833;BME280;48891;49.220;6.920;2023-03-01T06:08:55;99670.09;;;12.95;49.53
62833;BME280;48891;49.220;6.920;2023-03-01T06:11:21;99661.25;;;12.94;49.60
62833;BME280;48891;49.220;6.920;2023-03-01T06:13:46;99665.63;;;12.95;49.65
62833;BME280;48891;49.220;6.920;2023-03-01T06:16:13;99660.34;;;12.95;50.59
62833;BME280;48891;49.220;6.920;2023-03-01T06:18:38;99606.47;;;12.63;51.26
62833;BME280;48891;49.220;6.920;2023-03-01T06:21:05;99662.97;;;12.95;51.44
62833;BME280;48891;49.220;6.920;2023-03-01T06:23:30;99628.69;;;12.76;53.40
62833;BME280;48891;49.220;6.920;2023-03-01T06:25:56;99654.44;;;12.90;53.43
62833;BME280;48891;49.220;6.920;2023-03-01T06:28:21;99659.56;;;12.93;53.93
62833;BME280;48891;49.220;6.920;2023-03-01T06:30:47;99631.25;;;12.78;53.89
62833;BME280;48891;49.220;6.920;2023-03-01T06:33:13;99662.06;;;12.96;53.83
62833;BME280;48891;49.220;6.920;2023-03-01T06:35:39;99648.13;;;12.93;53.76
62833;BME280;48891;49.220;6.920;2023-03-01T06:38:04;99654.13;;;12.96;54.12
62833;BME280;48891;49.220;6.920;2023-03-01T06:40:31;99645.31;;;12.96;54.14
62833;BME280;48891;49.220;6.920;2023-03-01T06:42:56;99642.66;;;12.96;53.85
62833;BME280;48891;49.220;6.920;2023-03-01T06:45:22;99653.25;;;12.96;53.89
62833;BME280;48891;49.220;6.920;2023-03-01T06:47:48;99645.50;;;12.93;54.01
62833;BME280;48891;49.220;6.920;2023-03-01T06:50:14;99644.38;;;12.97;54.06
62833;BME280;48891;49.220;6.920;2023-03-01T06:52:40;99646.19;;;12.96;54.14
62833;BME280;48891;49.220;6.920;2023-03-01T06:55:06;99666.41;;;12.97;54.15
62833;BME280;48891;49.220;6.920;2023-03-01T06:57:31;99661.09;;;12.97;54.06
62833;BME280;48891;49.220;6.920;2023-03-01T06:59:57;99662.13;;;12.95;54.07
62833;BME280;48891;49.220;6.920;2023-03-01T07:02:22;99659.50;;;12.95;54.11
62833;BME280;48891;49.220;6.920;2023-03-01T07:04:51;99672.53;;;12.98;53.85
62833;BME280;48891;49.220;6.920;2023-03-01T07:07:17;99656.06;;;12.93;54.01
62833;BME280;48891;49.220;6.920;2023-03-01T07:09:44;99664.59;;;12.98;53.81
62833;BME280;48891;49.220;6.920;2023-03-01T07:12:09;99673.34;;;13.00;53.71
62833;BME280;48891;49.220;6.920;2023-03-01T07:14:35;99660.97;;;13.00;53.69
62833;BME280;48891;49.220;6.920;2023-03-01T07:17:00;99664.44;;;13.01;53.99
62833;BME280;48891;49.220;6.920;2023-03-01T07:19:26;99659.84;;;13.04;54.04
62833;BME280;48891;49.220;6.920;2023-03-01T07:21:51;99655.41;;;13.05;53.92
62833;BME280;48891;49.220;6.920;2023-03-01T07:24:16;99648.34;;;13.05;53.85
62833;BME280;48891;49.220;6.920;2023-03-01T07:26:42;99647.31;;;13.08;53.70
62833;BME280;48891;49.220;6.920;2023-03-01T07:29:09;99641.94;;;13.09;53.68
62833;BME280;48891;49.220;6.920;2023-03-01T07:31:35;99646.38;;;13.09;53.90
62833;BME280;48891;49.220;6.920;2023-03-01T07:34:00;99645.34;;;13.11;53.71
62833;BME280;48891;49.220;6.920;2023-03-01T07:36:25;99634.00;;;13.09;53.58
62833;BME280;48891;49.220;6.920;2023-03-01T07:38:51;99633.75;;;13.14;53.55
62833;BME280;48891;49.220;6.920;2023-03-01T07:41:16;99643.38;;;13.15;53.46
62833;BME280;48891;49.220;6.920;2023-03-01T07:43:41;99636.41;;;13.14;53.30
62833;BME280;48891;49.220;6.920;2023-03-01T07:46:06;99631.19;;;13.13;53.02
62833;BME280;48891;49.220;6.920;2023-03-01T07:48:33;99639.75;;;13.18;53.16
62833;BME280;48891;49.220;6.920;2023-03-01T07:50:59;99637.09;;;13.18;53.08
62833;BME280;48891;49.220;6.920;2023-03-01T07:53:25;99636.06;;;13.20;52.93
62833;BME280;48891;49.220;6.920;2023-03-01T07:58:27;99618.28;;;13.22;52.79
62833;BME280;48891;49.220;6.920;2023-03-01T08:00:53;99624.97;;;13.29;52.43
62833;BME280;48891;49.220;6.920;2023-03-01T08:03:18;99613.59;;;13.27;52.33
62833;BME280;48891;49.220;6.920;2023-03-01T08:05:43;99616.69;;;13.20;52.33
62833;BME280;48891;49.220;6.920;2023-03-01T08:08:08;99616.16;;;13.29;52.31
62833;BME280;48891;49.220;6.920;2023-03-01T08:10:36;99615.25;;;13.30;52.25
62833;BME280;48891;49.220;6.920;2023-03-01T08:13:02;99610.75;;;13.32;52.01
62833;BME280;48891;49.220;6.920;2023-03-01T08:15:27;99613.44;;;13.30;52.23
62833;BME280;48891;49.220;6.920;2023-03-01T08:17:52;99617.66;;;13.35;52.08
62833;BME280;48891;49.220;6.920;2023-03-01T08:20:18;99606.97;;;13.36;52.00
62833;BME280;48891;49.220;6.920;2023-03-01T08:22:43;99619.22;;;13.39;51.97
62833;BME280;48891;49.220;6.920;2023-03-01T08:25:09;99603.41;;;13.37;51.81
62833;BME280;48891;49.220;6.920;2023-03-01T08:27:34;99612.13;;;13.39;51.68
62833;BME280;48891;49.220;6.920;2023-03-01T08:29:59;99607.50;;;13.43;51.66
62833;BME280;48891;49.220;6.920;2023-03-01T08:32:24;99605.69;;;13.43;51.53
62833;BME280;48891;49.220;6.920;2023-03-01T08:34:50;99613.47;;;13.46;51.45
62833;BME280;48891;49.220;6.920;2023-03-01T08:37:15;99609.91;;;13.47;51.35
62833;BME280;48891;49.220;6.920;2023-03-01T08:39:40;99609.91;;;13.47;51.27
62833;BME280;48891;49.220;6.920;2023-03-01T08:42:06;99550.56;;;13.18;51.57
62833;BME280;48891;49.220;6.920;2023-03-01T08:44:31;99610.59;;;13.51;51.16
62833;BME280;48891;49.220;6.920;2023-03-01T08:46:56;99614.09;;;13.52;51.02
62833;BME280;48891;49.220;6.920;2023-03-01T08:49:21;99605.19;;;13.53;50.89
62833;BME280;48891;49.220;6.920;2023-03-01T08:51:47;99604.25;;;13.54;50.84
62833;BME280;48891;49.220;6.920;2023-03-01T08:54:15;99597.06;;;13.56;50.72
62833;BME280;48891;49.220;6.920;2023-03-01T08:56:42;99594.34;;;13.57;50.69
62833;BME280;48891;49.220;6.920;2023-03-01T08:59:07;99598.63;;;13.60;50.59
62833;BME280;48891;49.220;6.920;2023-03-01T09:01:34;99589.81;;;13.59;50.59
62833;BME280;48891;49.220;6.920;2023-03-01T09:03:59;99585.19;;;13.63;50.38
62833;BME280;48891;49.220;6.920;2023-03-01T09:06:25;99542.50;;;13.37;50.38
62833;BME280;48891;49.220;6.920;2023-03-01T09:08:50;99587.50;;;13.69;50.30
62833;BME280;48891;49.220;6.920;2023-03-01T09:11:20;99586.53;;;13.70;50.09
62833;BME280;48891;49.220;6.920;2023-03-01T09:13:47;99580.22;;;13.73;50.02
62833;BME280;48891;49.220;6.920;2023-03-01T09:16:14;99572.44;;;13.70;49.85
62833;BME280;48891;49.220;6.920;2023-03-01T09:18:40;99580.75;;;13.79;49.85
62833;BME280;48891;49.220;6.920;2023-03-01T09:21:11;99579.78;;;13.80;49.59
62833;BME280;48891;49.220;6.920;2023-03-01T09:23:38;99574.41;;;13.82;49.63
62833;BME280;48891;49.220;6.920;2023-03-01T09:26:08;99571.66;;;13.83;49.58
62833;BME280;48891;49.220;6.920;2023-03-01T09:28:35;99569.69;;;13.87;49.56
62833;BME280;48891;49.220;6.920;2023-03-01T09:31:01;99570.44;;;13.89;49.34
62833;BME280;48891;49.220;6.920;2023-03-01T09:33:28;99571.22;;;13.91;49.53
62833;BME280;48891;49.220;6.920;2023-03-01T09:35:58;99565.72;;;13.94;49.38
62833;BME280;48891;49.220;6.920;2023-03-01T09:38:24;99560.25;;;13.97;49.32
62833;BME280;48891;49.220;6.920;2023-03-01T09:40:50;99561.94;;;13.98;48.97
62833;BME280;48891;49.220;6.920;2023-03-01T09:43:35;99551.44;;;13.97;49.34
62833;BME280;48891;49.220;6.920;2023-03-01T09:46:08;99551.00;;;14.04;49.00
62833;BME280;48891;49.220;6.920;2023-03-01T09:48:44;99543.81;;;14.07;48.81
62833;BME280;48891;49.220;6.920;2023-03-01T09:51:19;99541.91;;;14.09;48.54
62833;BME280;48891;49.220;6.920;2023-03-01T09:53:48;99539.84;;;14.14;48.64
62833;BME280;48891;49.220;6.920;2023-03-01T09:56:21;99534.38;;;14.17;48.68
62833;BME280;48891;49.220;6.920;2023-03-01T09:58:59;99534.38;;;14.17;48.60
62833;BME280;48891;49.220;6.920;2023-03-01T10:07:10;99518.75;;;14.27;48.21
62833;BME280;48891;49.220;6.920;2023-03-01T10:09:40;99523.03;;;14.29;48.24
62833;BME280;48891;49.220;6.920;2023-03-01T10:12:40;99516.66;;;14.32;48.26
62833;BME280;48891;49.220;6.920;2023-03-01T10:15:18;99515.66;;;14.34;48.19
62833;BME280;48891;49.220;6.920;2023-03-01T10:17:49;99506.63;;;14.37;47.94
62833;BME280;48891;49.220;6.920;2023-03-01T10:22:41;99505.41;;;14.42;47.83
62833;BME280;48891;49.220;6.920;2023-03-01T10:25:08;99508.72;;;14.46;47.54
62833;BME280;48891;49.220;6.920;2023-03-01T10:30:21;99510.13;;;14.52;47.40
62833;BME280;48891;49.220;6.920;2023-03-01T10:32:49;99503.91;;;14.53;47.38
62833;BME280;48891;49.220;6.920;2023-03-01T10:37:57;99508.94;;;14.57;47.51
62833;BME280;48891;49.220;6.920;2023-03-01T10:40:23;99508.75;;;14.60;47.18
62833;BME280;48891;49.220;6.920;2023-03-01T10:42:49;99497.13;;;14.63;47.06
62833;BME280;48891;49.220;6.920;2023-03-01T10:45:35;99504.91;;;14.66;47.17
62833;BME280;48891;49.220;6.920;2023-03-01T10:48:20;99505.66;;;14.68;47.06
62833;BME280;48891;49.220;6.920;2023-03-01T10:50:48;99495.78;;;14.70;46.75
62833;BME280;48891;49.220;6.920;2023-03-01T10:55:46;99492.81;;;14.75;46.95
62833;BME280;48891;49.220;6.920;2023-03-01T11:03:24;99485.34;;;14.81;46.70
62833;BME280;48891;49.220;6.920;2023-03-01T11:05:56;99478.13;;;14.84;46.63
62833;BME280;48891;49.220;6.920;2023-03-01T11:13:34;99476.03;;;14.89;46.55
62833;BME280;48891;49.220;6.920;2023-03-01T11:16:03;99481.16;;;14.92;46.52
62833;BME280;48891;49.220;6.920;2023-03-01T11:18:31;99468.72;;;14.92;46.33
62833;BME280;48891;49.220;6.920;2023-03-01T11:20:58;99464.19;;;14.94;46.53
62833;BME280;48891;49.220;6.920;2023-03-01T11:23:25;99457.06;;;14.95;46.26
62833;BME280;48891;49.220;6.920;2023-03-01T11:25:56;99453.34;;;14.97;46.25
62833;BME280;48891;49.220;6.920;2023-03-01T11:28:24;99455.91;;;14.99;46.17
62833;BME280;48891;49.220;6.920;2023-03-01T11:31:05;99446.03;;;15.01;46.21
62833;BME280;48891;49.220;6.920;2023-03-01T11:33:39;99449.44;;;15.03;46.17
62833;BME280;48891;49.220;6.920;2023-03-01T11:36:16;99452.66;;;15.08;45.99
62833;BME280;48891;49.220;6.920;2023-03-01T11:38:44;99440.53;;;15.04;46.46
62833;BME280;48891;49.220;6.920;2023-03-01T11:41:15;99436.72;;;15.08;45.93
62833;BME280;48891;49.220;6.920;2023-03-01T11:43:57;99436.53;;;15.11;45.77
62833;BME280;48891;49.220;6.920;2023-03-01T11:56:45;99420.09;;;15.19;45.86
62833;BME280;48891;49.220;6.920;2023-03-01T12:08:20;99415.41;;;15.23;45.80
62833;BME280;48891;49.220;6.920;2023-03-01T12:11:00;99405.56;;;15.25;45.58
62833;BME280;48891;49.220;6.920;2023-03-01T12:19:07;99393.88;;;15.27;45.63
62833;BME280;48891;49.220;6.920;2023-03-01T12:21:52;99380.41;;;15.30;45.42
62833;BME280;48891;49.220;6.920;2023-03-01T12:24:42;99372.34;;;15.32;45.39
62833;BME280;48891;49.220;6.920;2023-03-01T12:36:19;99346.31;;;15.37;45.48
62833;BME280;48891;49.220;6.920;2023-03-01T12:41:06;99340.78;;;15.40;45.08
62833;BME280;48891;49.220;6.920;2023-03-01T12:44:01;99344.16;;;15.42;45.35
62833;BME280;48891;49.220;6.920;2023-03-01T12:52:01;99324.34;;;15.48;44.88
62833;BME280;48891;49.220;6.920;2023-03-01T12:54:33;99323.34;;;15.49;45.02
62833;BME280;48891;49.220;6.920;2023-03-01T12:57:12;99311.16;;;15.46;44.93
62833;BME280;48891;49.220;6.920;2023-03-01T12:59:51;99310.72;;;15.52;44.76
62833;BME280;48891;49.220;6.920;2023-03-01T13:02:37;99302.75;;;15.52;45.05
62833;BME280;48891;49.220;6.920;2023-03-01T13:06:10;99295.94;;;15.48;44.97
62833;BME280;48891;49.220;6.920;2023-03-01T13:08:16;99308.69;;;15.56;44.87
62833;BME280;48891;49.220;6.920;2023-03-01T13:10:56;99276.91;;;15.42;44.94
62833;BME280;48891;49.220;6.920;2023-03-01T13:13:25;99300.50;;;15.59;44.65
62833;BME280;48891;49.220;6.920;2023-03-01T13:15:52;99291.69;;;15.59;44.98
62833;BME280;48891;49.220;6.920;2023-03-01T13:30:56;99292.66;;;15.57;44.97
62833;BME280;48891;49.220;6.920;2023-03-01T13:35:57;99291.69;;;15.59;44.97
62833;BME280;48891;49.220;6.920;2023-03-01T13:38:48;99286.38;;;15.59;44.97
62833;BME280;48891;49.220;6.920;2023-03-01T13:44:20;99274.03;;;15.57;44.81
62833;BME280;48891;49.220;6.920;2023-03-01T13:46:49;99273.09;;;15.59;44.93
62833;BME280;48891;49.220;6.920;2023-03-01T13:49:18;99265.13;;;15.59;44.97
62833;BME280;48891;49.220;6.920;2023-03-01T13:51:48;99267.78;;;15.59;44.79
62833;BME280;48891;49.220;6.920;2023-03-01T13:54:16;99258.00;;;15.59;44.90
62833;BME280;48891;49.220;6.920;2023-03-01T13:56:45;99251.09;;;15.56;44.78
62833;BME280;48891;49.220;6.920;2023-03-01T13:59:16;99243.97;;;15.57;44.78
62833;BME280;48891;49.220;6.920;2023-03-01T14:01:42;99256.06;;;15.61;44.79
62833;BME280;48891;49.220;6.920;2023-03-01T14:04:28;99239.59;;;15.56;44.81
62833;BME280;48891;49.220;6.920;2023-03-01T14:07:18;99257.91;;;15.61;44.89
62833;BME280;48891;49.220;6.920;2023-03-01T14:09:46;99248.97;;;15.62;44.77
62833;BME280;48891;49.220;6.920;2023-03-01T14:15:29;99232.25;;;15.60;45.07
62833;BME280;48891;49.220;6.920;2023-03-01T14:20:40;99245.56;;;15.60;45.25
62833;BME280;48891;49.220;6.920;2023-03-01T14:23:14;99237.69;;;15.58;44.77
62833;BME280;48891;49.220;6.920;2023-03-01T14:25:48;99242.06;;;15.59;45.10
62833;BME280;48891;49.220;6.920;2023-03-01T14:28:19;99251.84;;;15.59;44.86
62833;BME280;48891;49.220;6.920;2023-03-01T14:30:49;99220.19;;;15.43;44.97
62833;BME280;48891;49.220;6.920;2023-03-01T14:35:57;99249.19;;;15.59;45.04
62833;BME280;48891;49.220;6.920;2023-03-01T14:38:44;99240.47;;;15.56;44.86
62833;BME280;48891;49.220;6.920;2023-03-01T14:41:19;99257.06;;;15.60;45.01
62833;BME280;48891;49.220;6.920;2023-03-01T14:43:47;99225.41;;;15.44;45.00
62833;BME280;48891;49.220;6.920;2023-03-01T14:46:28;99240.25;;;15.60;45.04
62833;BME280;48891;49.220;6.920;2023-03-01T14:49:02;99250.97;;;15.58;45.10
62833;BME280;48891;49.220;6.920;2023-03-01T14:51:27;99205.72;;;15.34;45.07
62833;BME280;48891;49.220;6.920;2023-03-01T14:53:53;99233.44;;;15.55;45.05
62833;BME280;48891;49.220;6.920;2023-03-01T14:56:19;99204.75;;;15.35;45.06